createdAt,value
2016-04-23T00:00:59.516Z,0
2016-04-23T00:01:59.300Z,0
2016-04-23T00:02:59.552Z,0
2016-04-23T00:03:59.555Z,0
2016-04-23T00:04:59.590Z,0
2016-04-23T00:05:59.608Z,0
2016-04-23T00:06:59.595Z,0
2016-04-23T00:07:59.582Z,0
2016-04-23T00:08:59.600Z,0
2016-04-23T00:09:59.619Z,0
2016-04-23T00:10:59.668Z,0
2016-04-23T00:11:59.468Z,0
2016-04-23T00:12:59.642Z,0
2016-04-23T00:13:59.645Z,0
2016-04-23T00:14:59.632Z,0
2016-04-23T00:15:59.634Z,0
2016-04-23T00:16:59.684Z,0
2016-04-23T00:17:59.500Z,0
2016-04-23T00:18:59.690Z,0
2016-04-23T00:19:59.614Z,0
2016-04-23T00:20:59.695Z,0
2016-04-23T00:21:59.729Z,0
2016-04-23T00:22:59.716Z,0
2016-04-23T00:23:59.703Z,0
2016-04-23T00:24:59.737Z,0
2016-04-23T00:25:59.739Z,0
2016-04-23T00:26:59.742Z,0
2016-04-23T00:27:59.745Z,0
2016-04-23T00:28:59.779Z,0
2016-04-23T00:29:59.750Z,0
2016-04-23T00:30:59.800Z,0
2016-04-23T00:31:59.788Z,0
2016-04-23T00:32:59.805Z,0
2016-04-23T00:33:59.777Z,0
2016-04-23T00:34:59.842Z,0
2016-04-23T00:35:59.829Z,0
2016-04-23T00:36:59.847Z,0
2016-04-23T00:37:59.866Z,0
2016-04-23T00:38:59.821Z,0
2016-04-23T00:39:59.840Z,0
2016-04-23T00:40:59.843Z,0
2016-04-23T00:41:59.860Z,0
2016-04-23T00:42:59.895Z,0
2016-04-23T00:43:59.898Z,0
2016-04-23T00:44:59.885Z,0
2016-04-23T00:45:59.903Z,0
2016-04-23T00:46:59.906Z,0
2016-04-23T00:47:59.909Z,0
2016-04-23T00:48:59.895Z,0
2016-04-23T00:49:59.789Z,0
2016-04-23T00:50:59.916Z,0
2016-04-23T00:51:59.951Z,0
2016-04-23T00:52:59.922Z,0
2016-04-23T00:53:59.940Z,0
2016-04-23T00:54:59.974Z,0
2016-04-23T00:55:59.977Z,0
2016-04-23T00:56:59.964Z,0
2016-04-23T00:57:59.982Z,0
2016-04-23T00:58:59.278Z,0
2016-04-23T01:00:00.003Z,0
2016-04-23T01:00:59.253Z,0
2016-04-23T01:02:00.024Z,0
2016-04-23T01:03:00.026Z,0
2016-04-23T01:04:00.013Z,0
2016-04-23T01:05:00.033Z,0
2016-04-23T01:06:00.050Z,0
2016-04-23T01:07:00.052Z,0
2016-04-23T01:08:00.041Z,0
2016-04-23T01:09:00.043Z,0
2016-04-23T01:10:00.077Z,0
2016-04-23T01:10:59.921Z,0
2016-04-23T01:12:00.114Z,0
2016-04-23T01:13:00.101Z,0
2016-04-23T01:14:00.103Z,0
2016-04-23T01:15:00.103Z,0
2016-04-23T01:16:00.106Z,0
2016-04-23T01:17:00.139Z,0
2016-04-23T01:18:00.143Z,0
2016-04-23T01:19:00.145Z,0
2016-04-23T01:20:00.179Z,0
2016-04-23T01:21:00.135Z,0
2016-04-23T01:22:00.170Z,0
2016-04-23T01:23:00.172Z,0
2016-04-23T01:24:00.189Z,0
2016-04-23T01:25:00.162Z,0
2016-04-23T01:26:00.211Z,0
2016-04-23T01:27:00.198Z,0
2016-04-23T01:28:00.200Z,0
2016-04-23T01:29:00.219Z,0
2016-04-23T01:30:00.237Z,0
2016-04-23T01:31:00.208Z,0
2016-04-23T01:32:00.227Z,0
2016-04-23T01:33:00.245Z,0
2016-04-23T01:34:00.248Z,0
2016-04-23T01:35:00.266Z,0
2016-04-23T01:36:00.253Z,0
2016-04-23T01:37:00.303Z,0
2016-04-23T01:38:00.274Z,0
2016-04-23T01:39:00.277Z,0
2016-04-23T01:40:00.296Z,0
2016-04-23T01:41:00.313Z,0
2016-04-23T01:42:00.316Z,0
2016-04-23T01:43:00.335Z,0
2016-04-23T01:44:00.337Z,0
2016-04-23T01:45:00.340Z,0
2016-04-23T01:46:00.327Z,0
2016-04-23T01:47:00.362Z,0
2016-04-23T01:48:00.348Z,0
2016-04-23T01:49:00.382Z,0
2016-04-23T01:50:00.401Z,0
2016-04-23T01:51:00.387Z,0
2016-04-23T01:52:00.375Z,0
2016-04-23T01:53:00.423Z,0
2016-04-23T01:54:00.396Z,0
2016-04-23T01:55:00.398Z,0
2016-04-23T01:56:00.416Z,0
2016-04-23T01:57:00.435Z,0
2016-04-23T01:58:00.406Z,0
2016-04-23T01:59:00.456Z,0
2016-04-23T02:00:00.458Z,0
2016-04-23T02:01:00.462Z,0
2016-04-23T02:02:00.464Z,0
2016-04-23T02:03:00.325Z,0
2016-04-23T02:04:00.469Z,0
2016-04-23T02:05:00.487Z,0
2016-04-23T02:06:00.334Z,0
2016-04-23T02:07:00.524Z,0
2016-04-23T02:08:00.496Z,0
2016-04-23T02:09:00.530Z,0
2016-04-23T02:10:00.533Z,0
2016-04-23T02:11:00.519Z,0
2016-04-23T02:12:00.568Z,0
2016-04-23T02:13:00.525Z,0
2016-04-23T02:14:00.527Z,0
2016-04-23T02:15:00.577Z,0
2016-04-23T02:16:00.595Z,0
2016-04-23T02:17:00.582Z,0
2016-04-23T02:18:00.570Z,0
2016-04-23T02:19:00.603Z,0
2016-04-23T02:20:00.575Z,0
2016-04-23T02:21:00.609Z,0
2016-04-23T02:22:00.471Z,0
2016-04-23T02:23:00.624Z,0
2016-04-23T02:24:00.642Z,0
2016-04-23T02:25:00.661Z,0
2016-04-23T02:26:00.632Z,0
2016-04-23T02:27:00.666Z,0
2016-04-23T02:28:00.652Z,0
2016-04-23T02:29:00.687Z,0
2016-04-23T02:30:00.705Z,0
2016-04-23T02:31:00.708Z,0
2016-04-23T02:32:00.695Z,0
2016-04-23T02:33:00.416Z,0
2016-04-23T02:34:00.716Z,0
2016-04-23T02:35:00.718Z,0
2016-04-23T02:36:00.737Z,0
2016-04-23T02:37:00.755Z,0
2016-04-23T02:38:00.727Z,0
2016-04-23T02:39:00.760Z,0
2016-04-23T02:40:00.748Z,0
2016-04-23T02:41:00.782Z,0
2016-04-23T02:42:00.768Z,0
2016-04-23T02:43:00.803Z,0
2016-04-23T02:44:00.774Z,0
2016-04-23T02:45:00.809Z,0
2016-04-23T02:46:00.842Z,0
2016-04-23T02:47:00.814Z,0
2016-04-23T02:48:00.817Z,0
2016-04-23T02:49:00.803Z,0
2016-04-23T02:50:00.837Z,0
2016-04-23T02:51:00.839Z,0
2016-04-23T02:52:00.859Z,0
2016-04-23T02:53:00.830Z,0
2016-04-23T02:54:00.878Z,0
2016-04-23T02:55:00.867Z,0
2016-04-23T02:56:00.884Z,0
2016-04-23T02:57:00.872Z,0
2016-04-23T02:58:00.905Z,0
2016-04-23T02:59:00.893Z,0
2016-04-23T03:00:00.927Z,0
2016-04-23T03:01:00.897Z,0
2016-04-23T03:02:00.932Z,0
2016-04-23T03:03:00.935Z,0
2016-04-23T03:04:00.969Z,0
2016-04-23T03:05:00.940Z,0
2016-04-23T03:06:00.958Z,0
2016-04-23T03:07:00.961Z,0
2016-04-23T03:08:00.995Z,0
2016-04-23T03:09:00.966Z,0
2016-04-23T03:10:01.001Z,0
2016-04-23T03:11:00.988Z,0
2016-04-23T03:12:01.006Z,0
2016-04-23T03:13:01.008Z,0
2016-04-23T03:14:01.012Z,0
2016-04-23T03:15:01.029Z,0
2016-04-23T03:16:01.031Z,0
2016-04-23T03:17:01.035Z,0
2016-04-23T03:18:00.912Z,0
2016-04-23T03:19:01.056Z,0
2016-04-23T03:20:01.059Z,0
2016-04-23T03:21:01.077Z,0
2016-04-23T03:22:01.079Z,0
2016-04-23T03:23:01.067Z,0
2016-04-23T03:24:01.069Z,0
2016-04-23T03:25:01.103Z,0
2016-04-23T03:26:01.089Z,0
2016-04-23T03:27:01.124Z,0
2016-04-23T03:28:01.128Z,0
2016-04-23T03:29:01.114Z,0
2016-04-23T03:30:01.133Z,0
2016-04-23T03:31:01.166Z,0
2016-04-23T03:32:01.153Z,0
2016-04-23T03:33:01.172Z,0
2016-04-23T03:34:01.174Z,0
2016-04-23T03:35:01.177Z,0
2016-04-23T03:36:01.180Z,0
2016-04-23T03:37:01.183Z,0
2016-04-23T03:38:01.201Z,0
2016-04-23T03:39:01.219Z,0
2016-04-23T03:40:01.207Z,0
2016-04-23T03:41:01.224Z,0
2016-04-23T03:42:01.226Z,0
2016-04-23T03:43:01.229Z,0
2016-04-23T03:44:01.233Z,0
2016-04-23T03:45:01.266Z,0
2016-04-23T03:46:01.238Z,0
2016-04-23T03:47:01.240Z,0
2016-04-23T03:48:01.118Z,0
2016-04-23T03:49:01.293Z,0
2016-04-23T03:50:01.279Z,0
2016-04-23T03:51:01.298Z,0
2016-04-23T03:52:01.301Z,0
2016-04-23T03:53:01.335Z,0
2016-04-23T03:54:01.165Z,0
2016-04-23T03:55:01.325Z,0
2016-04-23T03:56:01.299Z,0
2016-04-23T03:57:01.349Z,0
2016-04-23T03:58:01.352Z,0
2016-04-23T03:59:01.385Z,0
2016-04-23T04:00:01.358Z,0
2016-04-23T04:01:01.390Z,0
2016-04-23T04:02:00.629Z,0
2016-04-23T04:03:01.397Z,0
2016-04-23T04:04:01.399Z,0
2016-04-23T04:05:01.433Z,0
2016-04-23T04:06:01.420Z,0
2016-04-23T04:07:01.407Z,0
2016-04-23T04:08:01.410Z,0
2016-04-23T04:09:01.429Z,0
2016-04-23T04:10:01.447Z,0
2016-04-23T04:11:01.433Z,0
2016-04-23T04:12:01.468Z,0
2016-04-23T04:13:01.439Z,0
2016-04-23T04:14:01.473Z,0
2016-04-23T04:15:01.461Z,0
2016-04-23T04:16:01.541Z,0
2016-04-23T04:17:01.497Z,0
2016-04-23T04:18:01.500Z,0
2016-04-23T04:19:01.502Z,0
2016-04-23T04:20:01.505Z,0
2016-04-23T04:21:01.554Z,0
2016-04-23T04:22:01.541Z,0
2016-04-23T04:23:01.529Z,0
2016-04-23T04:24:01.547Z,0
2016-04-23T04:25:01.550Z,0
2016-04-23T04:26:01.568Z,0
2016-04-23T04:27:01.571Z,0
2016-04-23T04:28:01.588Z,0
2016-04-23T04:29:01.560Z,0
2016-04-23T04:30:01.594Z,0
2016-04-23T04:31:01.582Z,0
2016-04-23T04:32:01.616Z,0
2016-04-23T04:33:01.743Z,0
2016-04-23T04:34:01.652Z,0
2016-04-23T04:35:01.639Z,0
2016-04-23T04:36:01.642Z,0
2016-04-23T04:37:01.628Z,0
2016-04-23T04:38:01.662Z,0
2016-04-23T04:39:01.650Z,0
2016-04-23T04:40:01.668Z,0
2016-04-23T04:41:01.671Z,0
2016-04-23T04:42:01.673Z,0
2016-04-23T04:43:01.676Z,0
2016-04-23T04:44:01.725Z,0
2016-04-23T04:45:01.697Z,0
2016-04-23T04:46:01.731Z,0
2016-04-23T04:47:01.703Z,0
2016-04-23T04:48:01.737Z,0
2016-04-23T04:49:01.724Z,0
2016-04-23T04:50:01.758Z,0
2016-04-23T04:51:00.994Z,0
2016-04-23T04:52:01.763Z,0
2016-04-23T04:53:01.765Z,0
2016-04-23T04:54:01.768Z,0
2016-04-23T04:55:01.786Z,0
2016-04-23T04:56:01.789Z,0
2016-04-23T04:57:01.808Z,0
2016-04-23T04:58:01.794Z,0
2016-04-23T04:59:01.797Z,0
2016-04-23T05:00:01.799Z,0
2016-04-23T05:01:01.834Z,0
2016-04-23T05:02:01.805Z,0
2016-04-23T05:03:01.855Z,0
2016-04-23T05:04:01.843Z,0
2016-04-23T05:05:01.860Z,0
2016-04-23T05:06:01.848Z,0
2016-04-23T05:07:01.865Z,0
2016-04-23T05:08:01.869Z,0
2016-04-23T05:09:01.902Z,0
2016-04-23T05:10:01.889Z,0
2016-04-23T05:11:01.892Z,0
2016-04-23T05:12:01.926Z,0
2016-04-23T05:13:01.928Z,0
2016-04-23T05:14:01.916Z,0
2016-04-23T05:15:01.934Z,0
2016-04-23T05:16:01.922Z,0
2016-04-23T05:17:01.970Z,0
2016-04-23T05:18:01.942Z,0
2016-04-23T05:19:01.976Z,0
2016-04-23T05:20:01.964Z,0
2016-04-23T05:21:01.981Z,0
2016-04-23T05:22:01.984Z,0
2016-04-23T05:23:02.002Z,0
2016-04-23T05:24:01.989Z,0
2016-04-23T05:25:01.976Z,0
2016-04-23T05:26:02.026Z,0
2016-04-23T05:27:02.013Z,0
2016-04-23T05:28:02.047Z,0
2016-04-23T05:29:02.066Z,0
2016-04-23T05:30:02.037Z,0
2016-04-23T05:31:02.040Z,0
2016-04-23T05:32:02.026Z,0
2016-04-23T05:33:02.138Z,0
2016-04-23T05:34:02.048Z,0
2016-04-23T05:35:02.082Z,0
2016-04-23T05:36:02.115Z,0
2016-04-23T05:37:02.087Z,0
2016-04-23T05:38:02.121Z,5
2016-04-23T05:39:02.123Z,5
2016-04-23T05:40:02.142Z,5
2016-04-23T05:41:02.098Z,5
2016-04-23T05:42:02.132Z,5
2016-04-23T05:43:02.134Z,5
2016-04-23T05:44:02.153Z,5
2016-04-23T05:45:02.171Z,5
2016-04-23T05:46:02.142Z,5
2016-04-23T05:47:02.161Z,5
2016-04-23T05:48:02.178Z,5
2016-04-23T05:49:02.182Z,5
2016-04-23T05:50:02.184Z,5
2016-04-23T05:51:02.203Z,5
2016-04-23T05:52:02.175Z,5
2016-04-23T05:53:02.239Z,5
2016-04-23T05:54:02.211Z,5
2016-04-23T05:55:02.213Z,5
2016-04-23T05:56:02.232Z,5
2016-04-23T05:57:02.250Z,5
2016-04-23T05:58:02.268Z,5
2016-04-23T05:59:02.271Z,5
2016-04-23T06:00:02.274Z,5
2016-04-23T06:01:02.277Z,5
2016-04-23T06:02:02.263Z,5
2016-04-23T06:03:02.173Z,5
2016-04-23T06:04:02.268Z,5
2016-04-23T06:05:02.304Z,5
2016-04-23T06:06:01.571Z,5
2016-04-23T06:07:02.324Z,5
2016-04-23T06:08:02.327Z,5
2016-04-23T06:09:02.345Z,5
2016-04-23T06:10:02.332Z,5
2016-04-23T06:11:02.334Z,5
2016-04-23T06:12:02.353Z,5
2016-04-23T06:13:02.371Z,5
2016-04-23T06:14:02.389Z,5
2016-04-23T06:15:02.376Z,5
2016-04-23T06:16:02.411Z,5
2016-04-23T06:17:02.382Z,5
2016-04-23T06:18:02.416Z,5
2016-04-23T06:19:02.403Z,5
2016-04-23T06:20:02.436Z,5
2016-04-23T06:21:02.409Z,5
2016-04-23T06:22:02.428Z,5
2016-04-23T06:23:02.430Z,5
2016-04-23T06:24:02.480Z,5
2016-04-23T06:25:02.450Z,5
2016-04-23T06:26:02.453Z,5
2016-04-23T06:27:02.487Z,5
2016-04-23T06:28:02.474Z,5
2016-04-23T06:29:02.493Z,5
2016-04-23T06:30:02.527Z,5
2016-04-23T06:31:02.498Z,5
2016-04-23T06:32:02.485Z,5
2016-04-23T06:33:02.504Z,5
2016-04-23T06:34:02.537Z,5
2016-04-23T06:35:02.509Z,5
2016-04-23T06:36:02.573Z,5
2016-04-23T06:37:02.374Z,5
2016-04-23T06:38:02.549Z,10
2016-04-23T06:39:02.582Z,10
2016-04-23T06:40:02.569Z,10
2016-04-23T06:41:02.571Z,10
2016-04-23T06:42:02.621Z,10
2016-04-23T06:43:02.576Z,10
2016-04-23T06:44:02.611Z,10
2016-04-23T06:45:02.598Z,10
2016-04-23T06:46:02.601Z,10
2016-04-23T06:47:02.634Z,10
2016-04-23T06:48:02.653Z,10
2016-04-23T06:49:02.672Z,15
2016-04-23T06:50:02.642Z,15
2016-04-23T06:51:02.661Z,15
2016-04-23T06:52:02.663Z,15
2016-04-23T06:53:02.667Z,15
2016-04-23T06:54:02.701Z,15
2016-04-23T06:55:02.688Z,20
2016-04-23T06:56:02.691Z,20
2016-04-23T06:57:02.693Z,20
2016-04-23T06:58:02.711Z,20
2016-04-23T06:59:02.699Z,20
2016-04-23T07:00:02.732Z,20
2016-04-23T07:01:02.750Z,20
2016-04-23T07:02:02.738Z,20
2016-04-23T07:03:02.756Z,25
2016-04-23T07:04:02.758Z,20
2016-04-23T07:05:02.761Z,20
2016-04-23T07:06:02.779Z,20
2016-04-23T07:07:02.766Z,20
2016-04-23T07:08:02.862Z,20
2016-04-23T07:09:02.804Z,20
2016-04-23T07:10:02.807Z,20
2016-04-23T07:11:02.777Z,20
2016-04-23T07:12:02.812Z,20
2016-04-23T07:13:02.814Z,20
2016-04-23T07:14:02.848Z,20
2016-04-23T07:15:02.851Z,25
2016-04-23T07:16:02.837Z,25
2016-04-23T07:17:02.872Z,25
2016-04-23T07:18:02.875Z,25
2016-04-23T07:19:02.862Z,25
2016-04-23T07:20:02.880Z,25
2016-04-23T07:21:04.164Z,25
2016-04-23T07:22:02.900Z,20
2016-04-23T07:23:02.888Z,20
2016-04-23T07:24:02.937Z,20
2016-04-23T07:25:02.909Z,20
2016-04-23T07:26:04.599Z,20
2016-04-23T07:27:02.899Z,20
2016-04-23T07:28:02.807Z,20
2016-04-23T07:29:02.935Z,20
2016-04-23T07:30:02.985Z,20
2016-04-23T07:31:06.566Z,20
2016-04-23T07:32:03.005Z,20
2016-04-23T07:33:02.961Z,20
2016-04-23T07:34:02.964Z,20
2016-04-23T07:35:02.998Z,20
2016-04-23T07:36:03.016Z,20
2016-04-23T07:37:03.269Z,20
2016-04-23T07:38:03.007Z,20
2016-04-23T07:39:03.040Z,20
2016-04-23T07:40:03.012Z,20
2016-04-23T07:41:06.357Z,20
2016-04-23T07:42:03.080Z,20
2016-04-23T07:43:03.143Z,20
2016-04-23T07:44:03.190Z,20
2016-04-23T07:45:03.252Z,20
2016-04-23T07:46:04.829Z,20
2016-04-23T07:47:03.292Z,20
2016-04-23T07:48:03.373Z,20
2016-04-23T07:49:03.377Z,20
2016-04-23T07:50:03.396Z,20
2016-04-23T07:51:05.727Z,20
2016-04-23T07:52:03.441Z,20
2016-04-23T07:53:03.449Z,20
2016-04-23T07:54:03.458Z,20
2016-04-23T07:55:03.466Z,20
2016-04-23T07:56:03.459Z,20
2016-04-23T07:57:03.496Z,20
2016-04-23T07:58:03.485Z,20
2016-04-23T07:59:17.698Z,20
2016-04-23T08:00:03.541Z,20
2016-04-23T08:01:05.296Z,25
2016-04-23T08:02:03.534Z,25
2016-04-23T08:03:03.537Z,25
2016-04-23T08:04:03.542Z,25
2016-04-23T08:05:03.732Z,25
2016-04-23T08:06:05.127Z,25
2016-04-23T08:07:03.598Z,25
2016-04-23T08:08:03.586Z,25
2016-04-23T08:09:03.589Z,25
2016-04-23T08:10:03.435Z,25
2016-04-23T08:11:04.142Z,25
2016-04-23T08:12:03.628Z,30
2016-04-23T08:13:03.631Z,30
2016-04-23T08:14:03.681Z,30
2016-04-23T08:15:03.653Z,30
2016-04-23T08:16:03.655Z,30
2016-04-23T08:17:03.658Z,30
2016-04-23T08:18:03.660Z,30
2016-04-23T08:19:03.679Z,30
2016-04-23T08:20:03.681Z,30
2016-04-23T08:21:04.996Z,30
2016-04-23T08:22:03.718Z,30
2016-04-23T08:23:03.721Z,30
2016-04-23T08:24:03.724Z,30
2016-04-23T08:25:03.726Z,30
2016-04-23T08:26:03.730Z,30
2016-04-23T08:27:03.747Z,30
2016-04-23T08:28:03.813Z,30
2016-04-23T08:29:03.737Z,30
2016-04-23T08:30:03.760Z,30
2016-04-23T08:31:04.700Z,30
2016-04-23T08:32:03.766Z,30
2016-04-23T08:33:03.784Z,30
2016-04-23T08:34:03.521Z,30
2016-04-23T08:35:03.804Z,30
2016-04-23T08:36:06.854Z,30
2016-04-23T08:37:03.826Z,30
2016-04-23T08:38:03.828Z,30
2016-04-23T08:39:03.832Z,30
2016-04-23T08:40:03.850Z,30
2016-04-23T08:41:04.649Z,30
2016-04-23T08:42:03.856Z,30
2016-04-23T08:43:03.858Z,30
2016-04-23T08:44:03.875Z,30
2016-04-23T08:45:03.864Z,30
2016-04-23T08:46:06.725Z,30
2016-04-23T08:47:03.883Z,30
2016-04-23T08:48:03.886Z,25
2016-04-23T08:49:03.843Z,25
2016-04-23T08:50:04.252Z,25
2016-04-23T08:51:07.347Z,25
2016-04-23T08:52:03.945Z,25
2016-04-23T08:53:03.947Z,30
2016-04-23T08:54:03.965Z,30
2016-04-23T08:55:03.952Z,30
2016-04-23T08:56:05.580Z,30
2016-04-23T08:57:03.958Z,30
2016-04-23T08:58:03.992Z,30
2016-04-23T08:59:03.994Z,30
2016-04-23T09:00:03.982Z,30
2016-04-23T09:01:07.218Z,30
2016-04-23T09:02:04.018Z,30
2016-04-23T09:03:04.037Z,30
2016-04-23T09:04:03.898Z,30
2016-04-23T09:05:04.042Z,30
2016-04-23T09:06:07.232Z,30
2016-04-23T09:07:04.063Z,30
2016-04-23T09:08:04.065Z,30
2016-04-23T09:09:04.084Z,30
2016-04-23T09:10:04.102Z,30
2016-04-23T09:11:06.183Z,30
2016-04-23T09:12:04.123Z,30
2016-04-23T09:13:04.079Z,30
2016-04-23T09:14:04.113Z,30
2016-04-23T09:15:04.100Z,30
2016-04-23T09:16:04.150Z,30
2016-04-23T09:17:04.136Z,30
2016-04-23T09:18:04.139Z,30
2016-04-23T09:19:04.033Z,30
2016-04-23T09:20:04.192Z,30
2016-04-23T09:21:04.147Z,30
2016-04-23T09:22:04.181Z,30
2016-04-23T09:23:04.183Z,30
2016-04-23T09:24:04.186Z,30
2016-04-23T09:25:04.174Z,30
2016-04-23T09:26:06.724Z,30
2016-04-23T09:27:04.055Z,30
2016-04-23T09:28:04.213Z,30
2016-04-23T09:29:04.387Z,30
2016-04-23T09:30:04.250Z,30
2016-04-23T09:31:06.487Z,30
2016-04-23T09:32:04.271Z,30
2016-04-23T09:33:04.493Z,30
2016-04-23T09:34:04.307Z,30
2016-04-23T09:35:05.341Z,30
2016-04-23T09:36:09.641Z,30
2016-04-23T09:37:04.284Z,30
2016-04-23T09:38:04.318Z,35
2016-04-23T09:39:04.305Z,35
2016-04-23T09:40:04.073Z,35
2016-04-23T09:41:15.842Z,40
2016-04-23T09:42:04.673Z,40
2016-04-23T09:43:04.425Z,40
2016-04-23T09:44:04.365Z,45
2016-04-23T09:45:05.572Z,45
2016-04-23T09:46:07.120Z,45
2016-04-23T09:47:04.389Z,45
2016-04-23T09:48:04.361Z,45
2016-04-23T09:49:04.411Z,45
2016-04-23T09:50:04.382Z,45
2016-04-23T09:51:07.463Z,45
2016-04-23T09:52:04.403Z,45
2016-04-23T09:53:04.421Z,45
2016-04-23T09:54:04.455Z,45
2016-04-23T09:55:04.427Z,40
2016-04-23T09:56:07.397Z,40
2016-04-23T09:57:04.869Z,40
2016-04-23T09:58:04.466Z,40
2016-04-23T09:59:04.484Z,40
2016-04-23T10:00:04.502Z,40
2016-04-23T10:01:04.724Z,40
2016-04-23T10:02:04.493Z,40
2016-04-23T10:03:04.511Z,40
2016-04-23T10:04:04.466Z,40
2016-04-23T10:05:04.531Z,40
2016-04-23T10:06:05.440Z,45
2016-04-23T10:07:04.537Z,45
2016-04-23T10:08:04.243Z,45
2016-04-23T10:09:04.604Z,45
2016-04-23T10:10:04.545Z,45
2016-04-23T10:11:04.563Z,45
2016-04-23T10:12:04.503Z,45
2016-04-23T10:13:04.787Z,50
2016-04-23T10:14:04.603Z,50
2016-04-23T10:15:04.589Z,50
2016-04-23T10:16:07.608Z,50
2016-04-23T10:17:04.626Z,50
2016-04-23T10:18:04.613Z,50
2016-04-23T10:19:06.178Z,50
2016-04-23T10:20:04.431Z,50
2016-04-23T10:21:04.669Z,50
2016-04-23T10:22:04.499Z,50
2016-04-23T10:23:04.860Z,50
2016-04-23T10:24:04.680Z,50
2016-04-23T10:25:04.667Z,55
2016-04-23T10:26:04.685Z,55
2016-04-23T10:27:04.703Z,55
2016-04-23T10:28:03.955Z,55
2016-04-23T10:29:04.708Z,55
2016-04-23T10:30:04.742Z,55
2016-04-23T10:31:04.729Z,55
2016-04-23T10:32:04.747Z,55
2016-04-23T10:33:04.735Z,55
2016-04-23T10:34:05.566Z,55
2016-04-23T10:35:04.740Z,55
2016-04-23T10:36:04.774Z,50
2016-04-23T10:37:04.760Z,50
2016-04-23T10:38:04.810Z,45
2016-04-23T10:39:04.782Z,45
2016-04-23T10:40:04.815Z,40
2016-04-23T10:41:04.818Z,40
2016-04-23T10:42:04.821Z,40
2016-04-23T10:43:04.809Z,40
2016-04-23T10:44:04.826Z,40
2016-04-23T10:45:04.861Z,35
2016-04-23T10:46:04.848Z,35
2016-04-23T10:47:04.867Z,35
2016-04-23T10:48:04.884Z,30
2016-04-23T10:49:05.356Z,30
2016-04-23T10:50:05.937Z,30
2016-04-23T10:51:04.893Z,30
2016-04-23T10:52:04.911Z,30
2016-04-23T10:53:04.914Z,30
2016-04-23T10:54:04.931Z,35
2016-04-23T10:55:04.904Z,35
2016-04-23T10:56:04.937Z,40
2016-04-23T10:57:04.939Z,45
2016-04-23T10:58:04.958Z,45
2016-04-23T10:59:04.977Z,45
2016-04-23T11:00:04.948Z,45
2016-04-23T11:01:04.950Z,50
2016-04-23T11:02:04.969Z,50
2016-04-23T11:03:05.002Z,50
2016-04-23T11:04:04.927Z,55
2016-04-23T11:05:05.586Z,55
2016-04-23T11:06:04.855Z,55
2016-04-23T11:07:05.030Z,60
2016-04-23T11:08:05.048Z,60
2016-04-23T11:09:05.035Z,65
2016-04-23T11:10:04.334Z,65
2016-04-23T11:11:05.040Z,60
2016-04-23T11:12:05.074Z,60
2016-04-23T11:13:05.062Z,60
2016-04-23T11:14:05.080Z,60
2016-04-23T11:15:05.097Z,65
2016-04-23T11:16:05.100Z,65
2016-04-23T11:17:05.103Z,65
2016-04-23T11:18:05.371Z,65
2016-04-23T11:19:05.124Z,60
2016-04-23T11:20:06.002Z,50
2016-04-23T11:21:05.161Z,45
2016-04-23T11:22:05.132Z,40
2016-04-23T11:23:05.150Z,40
2016-04-23T11:24:05.153Z,35
2016-04-23T11:25:05.172Z,30
2016-04-23T11:26:05.221Z,30
2016-04-23T11:27:05.208Z,25
2016-04-23T11:28:05.195Z,25
2016-04-23T11:29:05.214Z,25
2016-04-23T11:30:05.200Z,25
2016-04-23T11:31:05.203Z,30
2016-04-23T11:32:05.222Z,30
2016-04-23T11:33:05.240Z,30
2016-04-23T11:34:05.227Z,30
2016-04-23T11:35:06.230Z,30
2016-04-23T11:36:05.280Z,30
2016-04-23T11:37:05.297Z,30
2016-04-23T11:38:05.285Z,30
2016-04-23T11:39:05.303Z,35
2016-04-23T11:40:05.274Z,35
2016-04-23T11:41:05.308Z,40
2016-04-23T11:42:05.295Z,40
2016-04-23T11:43:05.329Z,45
2016-04-23T11:44:05.316Z,45
2016-04-23T11:45:05.335Z,50
2016-04-23T11:46:05.338Z,50
2016-04-23T11:47:05.387Z,45
2016-04-23T11:48:05.358Z,45
2016-04-23T11:49:05.377Z,45
2016-04-23T11:50:06.239Z,45
2016-04-23T11:51:05.429Z,45
2016-04-23T11:52:05.385Z,45
2016-04-23T11:53:05.388Z,45
2016-04-23T11:54:05.437Z,50
2016-04-23T11:55:05.392Z,50
2016-04-23T11:56:05.442Z,45
2016-04-23T11:57:05.461Z,45
2016-04-23T11:58:05.448Z,45
2016-04-23T11:59:05.466Z,45
2016-04-23T12:00:05.469Z,40
2016-04-23T12:01:05.472Z,40
2016-04-23T12:02:05.459Z,40
2016-04-23T12:03:05.508Z,40
2016-04-23T12:04:05.511Z,45
2016-04-23T12:05:05.638Z,45
2016-04-23T12:06:05.532Z,50
2016-04-23T12:07:05.519Z,50
2016-04-23T12:08:05.522Z,55
2016-04-23T12:09:05.540Z,50
2016-04-23T12:10:05.574Z,50
2016-04-23T12:11:05.546Z,50
2016-04-23T12:12:05.548Z,50
2016-04-23T12:13:05.582Z,50
2016-04-23T12:14:05.553Z,50
2016-04-23T12:15:05.603Z,50
2016-04-23T12:16:05.606Z,50
2016-04-23T12:17:05.593Z,50
2016-04-23T12:18:05.611Z,50
2016-04-23T12:19:05.629Z,50
2016-04-23T12:20:05.725Z,50
2016-04-23T12:21:05.651Z,50
2016-04-23T12:22:05.668Z,50
2016-04-23T12:23:05.640Z,45
2016-04-23T12:24:05.658Z,45
2016-04-23T12:25:05.676Z,45
2016-04-23T12:26:05.679Z,45
2016-04-23T12:27:05.698Z,45
2016-04-23T12:28:05.717Z,45
2016-04-23T12:29:05.703Z,45
2016-04-23T12:30:05.689Z,45
2016-04-23T12:31:05.724Z,45
2016-04-23T12:32:05.742Z,45
2016-04-23T12:33:05.730Z,45
2016-04-23T12:34:05.733Z,45
2016-04-23T12:35:06.344Z,45
2016-04-23T12:36:05.769Z,45
2016-04-23T12:37:05.772Z,45
2016-04-23T12:38:05.774Z,50
2016-04-23T12:39:05.839Z,50
2016-04-23T12:40:05.810Z,55
2016-04-23T12:41:05.782Z,55
2016-04-23T12:42:05.816Z,55
2016-04-23T12:43:05.819Z,55
2016-04-23T12:44:05.852Z,55
2016-04-23T12:45:05.840Z,50
2016-04-23T12:46:05.858Z,50
2016-04-23T12:47:05.830Z,50
2016-04-23T12:48:05.848Z,45
2016-04-23T12:49:05.866Z,45
2016-04-23T12:50:06.868Z,45
2016-04-23T12:51:05.871Z,45
2016-04-23T12:52:05.906Z,40
2016-04-23T12:53:05.924Z,35
2016-04-23T12:54:05.926Z,30
2016-04-23T12:55:05.914Z,30
2016-04-23T12:56:05.932Z,30
2016-04-23T12:57:05.934Z,30
2016-04-23T12:58:05.969Z,25
2016-04-23T12:59:05.955Z,25
2016-04-23T13:00:05.974Z,25
2016-04-23T13:01:05.961Z,20
2016-04-23T13:02:05.823Z,20
2016-04-23T13:03:05.810Z,20
2016-04-23T13:04:06.000Z,15
2016-04-23T13:05:06.815Z,15
2016-04-23T13:06:05.896Z,15
2016-04-23T13:07:12.351Z,15
2016-04-23T13:08:06.041Z,10
2016-04-23T13:09:06.028Z,15
2016-04-23T13:10:06.047Z,15
2016-04-23T13:11:06.064Z,15
2016-04-23T13:12:06.052Z,15
2016-04-23T13:13:06.086Z,15
2016-04-23T13:14:06.058Z,15
2016-04-23T13:15:06.076Z,15
2016-04-23T13:16:06.110Z,15
2016-04-23T13:17:06.080Z,15
2016-04-23T13:18:06.146Z,15
2016-04-23T13:19:06.102Z,15
2016-04-23T13:20:06.902Z,15
2016-04-23T13:21:07.107Z,15
2016-04-23T13:22:06.162Z,15
2016-04-23T13:23:06.180Z,15
2016-04-23T13:24:06.183Z,15
2016-04-23T13:25:06.170Z,15
2016-04-23T13:26:06.188Z,15
2016-04-23T13:27:06.035Z,15
2016-04-23T13:28:06.210Z,15
2016-04-23T13:29:06.211Z,15
2016-04-23T13:30:06.198Z,15
2016-04-23T13:31:06.233Z,15
2016-04-23T13:32:06.204Z,15
2016-04-23T13:33:06.238Z,15
2016-04-23T13:34:06.085Z,15
2016-04-23T13:35:06.275Z,15
2016-04-23T13:36:06.089Z,15
2016-04-23T13:37:06.281Z,15
2016-04-23T13:38:06.267Z,15
2016-04-23T13:39:06.269Z,15
2016-04-23T13:40:06.320Z,20
2016-04-23T13:41:06.323Z,20
2016-04-23T13:42:06.326Z,20
2016-04-23T13:43:06.328Z,20
2016-04-23T13:44:06.347Z,15
2016-04-23T13:45:06.349Z,15
2016-04-23T13:46:06.196Z,15
2016-04-23T13:47:06.386Z,15
2016-04-23T13:48:06.358Z,15
2016-04-23T13:49:06.375Z,15
2016-04-23T13:50:06.722Z,15
2016-04-23T13:51:06.116Z,15
2016-04-23T13:52:06.384Z,15
2016-04-23T13:53:06.402Z,15
2016-04-23T13:54:06.436Z,15
2016-04-23T13:55:06.424Z,15
2016-04-23T13:56:06.426Z,15
2016-04-23T13:57:06.444Z,15
2016-04-23T13:58:06.447Z,15
2016-04-23T13:59:06.496Z,15
2016-04-23T14:00:06.452Z,15
2016-04-23T14:01:06.487Z,15
2016-04-23T14:02:06.473Z,20
2016-04-23T14:03:06.492Z,20
2016-04-23T14:04:06.495Z,20
2016-04-23T14:05:06.810Z,20
2016-04-23T14:06:06.500Z,20
2016-04-23T14:07:06.534Z,20
2016-04-23T14:08:06.537Z,20
2016-04-23T14:09:06.508Z,20
2016-04-23T14:10:06.557Z,20
2016-04-23T14:11:06.560Z,20
2016-04-23T14:12:06.562Z,20
2016-04-23T14:13:06.565Z,20
2016-04-23T14:14:06.568Z,20
2016-04-23T14:15:06.587Z,20
2016-04-23T14:16:06.589Z,20
2016-04-23T14:17:06.623Z,20
2016-04-23T14:18:06.611Z,20
2016-04-23T14:19:06.614Z,20
2016-04-23T14:20:07.053Z,20
2016-04-23T14:21:08.181Z,20
2016-04-23T14:22:06.652Z,20
2016-04-23T14:23:06.671Z,20
2016-04-23T14:24:06.641Z,20
2016-04-23T14:25:06.677Z,20
2016-04-23T14:26:06.663Z,20
2016-04-23T14:27:06.682Z,20
2016-04-23T14:28:06.685Z,20
2016-04-23T14:29:06.718Z,20
2016-04-23T14:30:06.705Z,20